sensor_id;sensor_type;location;lat;lon;timestamp;temperature;humidity
84114;DHT22;74483;48.846;2.358;2024-02-15T00:01:54;22.80;29.60
84114;DHT22;74483;48.846;2.358;2024-02-15T00:04:19;22.80;29.60
84114;DHT22;74483;48.846;2.358;2024-02-15T00:06:45;22.80;29.60
84114;DHT22;74483;48.846;2.358;2024-02-15T00:09:11;22.80;29.60
84114;DHT22;74483;48.846;2.358;2024-02-15T00:11:36;22.80;29.60
84114;DHT22;74483;48.846;2.358;2024-02-15T00:14:04;22.80;29.60
84114;DHT22;74483;48.846;2.358;2024-02-15T00:16:30;22.70;29.60
84114;DHT22;74483;48.846;2.358;2024-02-15T00:18:56;22.70;29.60
84114;DHT22;74483;48.846;2.358;2024-02-15T00:21:22;22.80;29.60
84114;DHT22;74483;48.846;2.358;2024-02-15T00:23:48;22.70;29.60
84114;DHT22;74483;48.846;2.358;2024-02-15T00:26:14;22.80;29.60
84114;DHT22;74483;48.846;2.358;2024-02-15T00:28:43;22.80;29.60
84114;DHT22;74483;48.846;2.358;2024-02-15T00:31:09;22.80;29.60
84114;DHT22;74483;48.846;2.358;2024-02-15T00:33:34;22.70;29.60
84114;DHT22;74483;48.846;2.358;2024-02-15T00:36:03;22.70;29.60
84114;DHT22;74483;48.846;2.358;2024-02-15T00:38:31;22.70;29.60
84114;DHT22;74483;48.846;2.358;2024-02-15T00:40:57;22.70;29.60
84114;DHT22;74483;48.846;2.358;2024-02-15T00:43:24;22.70;29.60
84114;DHT22;74483;48.846;2.358;2024-02-15T00:45:50;22.70;29.60
84114;DHT22;74483;48.846;2.358;2024-02-15T00:48:15;22.70;29.60
84114;DHT22;74483;48.846;2.358;2024-02-15T00:50:41;22.70;29.60
84114;DHT22;74483;48.846;2.358;2024-02-15T00:53:06;22.70;29.60
84114;DHT22;74483;48.846;2.358;2024-02-15T00:55:32;22.70;29.60
84114;DHT22;74483;48.846;2.358;2024-02-15T00:57:57;22.70;29.60
84114;DHT22;74483;48.846;2.358;2024-02-15T01:00:23;22.70;29.60
84114;DHT22;74483;48.846;2.358;2024-02-15T01:02:49;22.70;29.60
84114;DHT22;74483;48.846;2.358;2024-02-15T01:05:15;22.70;29.60
84114;DHT22;74483;48.846;2.358;2024-02-15T01:07:41;22.70;29.60
84114;DHT22;74483;48.846;2.358;2024-02-15T01:10:07;22.70;29.60
84114;DHT22;74483;48.846;2.358;2024-02-15T01:12:33;22.70;29.60
84114;DHT22;74483;48.846;2.358;2024-02-15T01:14:59;22.70;29.60
84114;DHT22;74483;48.846;2.358;2024-02-15T01:17:24;22.60;29.50
84114;DHT22;74483;48.846;2.358;2024-02-15T01:19:50;22.70;29.60
84114;DHT22;74483;48.846;2.358;2024-02-15T01:22:16;22.70;29.60
84114;DHT22;74483;48.846;2.358;2024-02-15T01:24:42;22.70;29.60
84114;DHT22;74483;48.846;2.358;2024-02-15T01:27:07;22.70;29.60
84114;DHT22;74483;48.846;2.358;2024-02-15T01:29:34;22.70;29.60
84114;DHT22;74483;48.846;2.358;2024-02-15T01:32:00;22.60;29.40
84114;DHT22;74483;48.846;2.358;2024-02-15T01:34:27;22.70;29.60
84114;DHT22;74483;48.846;2.358;2024-02-15T01:36:53;22.60;29.40
84114;DHT22;74483;48.846;2.358;2024-02-15T01:39:19;22.60;29.40
84114;DHT22;74483;48.846;2.358;2024-02-15T01:41:48;22.60;29.40
84114;DHT22;74483;48.846;2.358;2024-02-15T01:44:17;22.60;29.40
84114;DHT22;74483;48.846;2.358;2024-02-15T01:46:44;22.60;29.40
84114;DHT22;74483;48.846;2.358;2024-02-15T01:49:11;22.60;29.50
84114;DHT22;74483;48.846;2.358;2024-02-15T01:51:37;22.60;29.40
84114;DHT22;74483;48.846;2.358;2024-02-15T01:54:03;22.60;29.40
84114;DHT22;74483;48.846;2.358;2024-02-15T01:56:30;22.60;29.40
84114;DHT22;74483;48.846;2.358;2024-02-15T01:58:57;22.60;29.40
84114;DHT22;74483;48.846;2.358;2024-02-15T02:01:23;22.60;29.40
84114;DHT22;74483;48.846;2.358;2024-02-15T02:03:49;22.60;29.40
84114;DHT22;74483;48.846;2.358;2024-02-15T02:06:16;22.60;29.40
84114;DHT22;74483;48.846;2.358;2024-02-15T02:08:41;22.60;29.40
84114;DHT22;74483;48.846;2.358;2024-02-15T02:11:07;22.60;29.40
84114;DHT22;74483;48.846;2.358;2024-02-15T02:13:33;22.60;29.40
84114;DHT22;74483;48.846;2.358;2024-02-15T02:15:58;22.60;30.00
84114;DHT22;74483;48.846;2.358;2024-02-15T02:18:25;22.60;29.40
84114;DHT22;74483;48.846;2.358;2024-02-15T02:20:51;22.60;29.30
84114;DHT22;74483;48.846;2.358;2024-02-15T02:23:17;22.60;29.40
84114;DHT22;74483;48.846;2.358;2024-02-15T02:25:47;22.60;29.40
84114;DHT22;74483;48.846;2.358;2024-02-15T02:28:14;22.60;29.40
84114;DHT22;74483;48.846;2.358;2024-02-15T02:30:41;22.60;29.30
84114;DHT22;74483;48.846;2.358;2024-02-15T02:33:13;22.60;29.30
84114;DHT22;74483;48.846;2.358;2024-02-15T02:35:45;22.60;29.40
84114;DHT22;74483;48.846;2.358;2024-02-15T02:38:11;22.60;29.30
84114;DHT22;74483;48.846;2.358;2024-02-15T02:40:37;22.60;29.30
84114;DHT22;74483;48.846;2.358;2024-02-15T02:43:02;22.60;29.40
84114;DHT22;74483;48.846;2.358;2024-02-15T02:45:28;22.60;29.30
84114;DHT22;74483;48.846;2.358;2024-02-15T02:47:54;22.50;29.30
84114;DHT22;74483;48.846;2.358;2024-02-15T02:50:23;22.50;29.30
84114;DHT22;74483;48.846;2.358;2024-02-15T02:52:49;22.60;29.30
84114;DHT22;74483;48.846;2.358;2024-02-15T02:55:15;22.50;29.30
84114;DHT22;74483;48.846;2.358;2024-02-15T02:57:41;22.50;29.30
84114;DHT22;74483;48.846;2.358;2024-02-15T03:00:12;22.50;29.30
84114;DHT22;74483;48.846;2.358;2024-02-15T03:02:42;22.50;29.20
84114;DHT22;74483;48.846;2.358;2024-02-15T03:05:11;22.50;29.20
84114;DHT22;74483;48.846;2.358;2024-02-15T03:07:37;22.50;29.20
84114;DHT22;74483;48.846;2.358;2024-02-15T03:10:04;22.50;29.20
84114;DHT22;74483;48.846;2.358;2024-02-15T03:12:30;22.50;29.20
84114;DHT22;74483;48.846;2.358;2024-02-15T03:14:56;22.50;29.20
84114;DHT22;74483;48.846;2.358;2024-02-15T03:17:23;22.50;29.20
84114;DHT22;74483;48.846;2.358;2024-02-15T03:19:49;22.50;29.20
84114;DHT22;74483;48.846;2.358;2024-02-15T03:22:14;22.50;29.30
84114;DHT22;74483;48.846;2.358;2024-02-15T03:24:40;22.50;29.20
84114;DHT22;74483;48.846;2.358;2024-02-15T03:27:07;22.50;29.20
84114;DHT22;74483;48.846;2.358;2024-02-15T03:29:32;22.50;29.20
84114;DHT22;74483;48.846;2.358;2024-02-15T03:32:01;22.50;29.20
84114;DHT22;74483;48.846;2.358;2024-02-15T03:34:28;22.50;29.20
84114;DHT22;74483;48.846;2.358;2024-02-15T03:36:53;22.50;29.20
84114;DHT22;74483;48.846;2.358;2024-02-15T03:39:19;22.50;29.20
84114;DHT22;74483;48.846;2.358;2024-02-15T03:41:45;22.50;29.20
84114;DHT22;74483;48.846;2.358;2024-02-15T03:44:14;22.50;29.20
84114;DHT22;74483;48.846;2.358;2024-02-15T03:46:40;22.50;29.10
84114;DHT22;74483;48.846;2.358;2024-02-15T03:49:06;22.40;29.10
84114;DHT22;74483;48.846;2.358;2024-02-15T03:51:36;22.40;29.10
84114;DHT22;74483;48.846;2.358;2024-02-15T03:54:01;22.40;29.10
84114;DHT22;74483;48.846;2.358;2024-02-15T03:56:29;22.50;29.20
84114;DHT22;74483;48.846;2.358;2024-02-15T03:58:57;22.50;29.10
84114;DHT22;74483;48.846;2.358;2024-02-15T04:01:24;22.40;29.00
84114;DHT22;74483;48.846;2.358;2024-02-15T04:03:50;22.40;29.10
84114;DHT22;74483;48.846;2.358;2024-02-15T04:06:15;22.40;29.00
84114;DHT22;74483;48.846;2.358;2024-02-15T04:08:41;22.40;29.10
84114;DHT22;74483;48.846;2.358;2024-02-15T04:11:06;22.40;29.00
84114;DHT22;74483;48.846;2.358;2024-02-15T04:13:33;22.40;29.00
84114;DHT22;74483;48.846;2.358;2024-02-15T04:15:59;22.40;29.00
84114;DHT22;74483;48.846;2.358;2024-02-15T04:18:25;22.40;29.00
84114;DHT22;74483;48.846;2.358;2024-02-15T04:20:50;22.40;29.00
84114;DHT22;74483;48.846;2.358;2024-02-15T04:23:16;22.40;29.00
84114;DHT22;74483;48.846;2.358;2024-02-15T04:25:42;22.40;29.00
84114;DHT22;74483;48.846;2.358;2024-02-15T04:28:09;22.40;29.60
84114;DHT22;74483;48.846;2.358;2024-02-15T04:30:35;22.40;29.00
84114;DHT22;74483;48.846;2.358;2024-02-15T04:33:04;22.40;29.00
84114;DHT22;74483;48.846;2.358;2024-02-15T04:35:31;22.40;29.00
84114;DHT22;74483;48.846;2.358;2024-02-15T04:37:56;22.40;29.00
84114;DHT22;74483;48.846;2.358;2024-02-15T04:40:23;22.40;29.00
84114;DHT22;74483;48.846;2.358;2024-02-15T04:42:48;22.40;29.00
84114;DHT22;74483;48.846;2.358;2024-02-15T04:45:14;22.40;28.90
84114;DHT22;74483;48.846;2.358;2024-02-15T04:47:41;22.40;29.00
84114;DHT22;74483;48.846;2.358;2024-02-15T04:50:07;22.40;29.00
84114;DHT22;74483;48.846;2.358;2024-02-15T04:52:33;22.40;28.90
84114;DHT22;74483;48.846;2.358;2024-02-15T04:54:59;22.40;28.90
84114;DHT22;74483;48.846;2.358;2024-02-15T04:57:27;22.40;28.90
84114;DHT22;74483;48.846;2.358;2024-02-15T04:59:56;22.40;28.90
84114;DHT22;74483;48.846;2.358;2024-02-15T05:02:22;22.40;28.90
84114;DHT22;74483;48.846;2.358;2024-02-15T05:04:50;22.40;29.60
84114;DHT22;74483;48.846;2.358;2024-02-15T05:07:20;22.40;28.90
84114;DHT22;74483;48.846;2.358;2024-02-15T05:09:48;22.40;28.90
84114;DHT22;74483;48.846;2.358;2024-02-15T05:12:21;22.40;28.90
84114;DHT22;74483;48.846;2.358;2024-02-15T05:14:47;22.40;28.90
84114;DHT22;74483;48.846;2.358;2024-02-15T05:17:14;22.40;28.90
84114;DHT22;74483;48.846;2.358;2024-02-15T05:19:39;22.40;28.90
84114;DHT22;74483;48.846;2.358;2024-02-15T05:22:05;22.30;28.90
84114;DHT22;74483;48.846;2.358;2024-02-15T05:24:34;22.40;28.90
84114;DHT22;74483;48.846;2.358;2024-02-15T05:26:59;22.40;28.80
84114;DHT22;74483;48.846;2.358;2024-02-15T05:29:26;22.40;28.90
84114;DHT22;74483;48.846;2.358;2024-02-15T05:31:53;22.40;28.80
84114;DHT22;74483;48.846;2.358;2024-02-15T05:34:20;22.40;28.80
84114;DHT22;74483;48.846;2.358;2024-02-15T05:36:45;22.40;28.80
84114;DHT22;74483;48.846;2.358;2024-02-15T05:39:13;22.40;28.90
84114;DHT22;74483;48.846;2.358;2024-02-15T05:41:40;22.40;28.80
84114;DHT22;74483;48.846;2.358;2024-02-15T05:44:05;22.40;28.80
84114;DHT22;74483;48.846;2.358;2024-02-15T05:46:32;22.40;28.80
84114;DHT22;74483;48.846;2.358;2024-02-15T05:49:02;22.40;28.80
84114;DHT22;74483;48.846;2.358;2024-02-15T05:51:30;22.40;28.80
84114;DHT22;74483;48.846;2.358;2024-02-15T05:53:56;22.40;28.80
84114;DHT22;74483;48.846;2.358;2024-02-15T05:56:25;22.40;28.80
84114;DHT22;74483;48.846;2.358;2024-02-15T05:58:52;22.40;28.80
84114;DHT22;74483;48.846;2.358;2024-02-15T06:01:17;22.40;28.80
84114;DHT22;74483;48.846;2.358;2024-02-15T06:03:43;22.30;29.40
84114;DHT22;74483;48.846;2.358;2024-02-15T06:06:10;22.30;28.70
84114;DHT22;74483;48.846;2.358;2024-02-15T06:08:37;22.40;28.70
84114;DHT22;74483;48.846;2.358;2024-02-15T06:11:03;22.40;28.80
84114;DHT22;74483;48.846;2.358;2024-02-15T06:13:31;22.40;28.70
84114;DHT22;74483;48.846;2.358;2024-02-15T06:15:56;22.40;28.70
84114;DHT22;74483;48.846;2.358;2024-02-15T06:18:29;22.40;28.70
84114;DHT22;74483;48.846;2.358;2024-02-15T06:20:58;22.40;28.70
84114;DHT22;74483;48.846;2.358;2024-02-15T06:23:25;22.40;28.70
84114;DHT22;74483;48.846;2.358;2024-02-15T06:25:57;22.40;28.60
84114;DHT22;74483;48.846;2.358;2024-02-15T06:28:29;22.40;28.60
84114;DHT22;74483;48.846;2.358;2024-02-15T06:31:13;22.40;28.60
84114;DHT22;74483;48.846;2.358;2024-02-15T06:33:58;22.40;28.60
84114;DHT22;74483;48.846;2.358;2024-02-15T06:36:55;22.40;28.60
84114;DHT22;74483;48.846;2.358;2024-02-15T06:39:40;22.40;28.60
84114;DHT22;74483;48.846;2.358;2024-02-15T06:42:16;22.40;28.60
84114;DHT22;74483;48.846;2.358;2024-02-15T06:44:48;22.40;28.60
84114;DHT22;74483;48.846;2.358;2024-02-15T06:47:14;22.40;28.60
84114;DHT22;74483;48.846;2.358;2024-02-15T06:49:43;22.40;28.60
84114;DHT22;74483;48.846;2.358;2024-02-15T06:52:11;22.40;28.60
84114;DHT22;74483;48.846;2.358;2024-02-15T06:54:40;22.40;28.50
84114;DHT22;74483;48.846;2.358;2024-02-15T06:57:06;22.40;29.00
84114;DHT22;74483;48.846;2.358;2024-02-15T06:59:32;22.40;28.50
84114;DHT22;74483;48.846;2.358;2024-02-15T07:01:58;22.40;28.50
84114;DHT22;74483;48.846;2.358;2024-02-15T07:04:24;22.40;28.50
84114;DHT22;74483;48.846;2.358;2024-02-15T07:06:53;22.50;28.50
84114;DHT22;74483;48.846;2.358;2024-02-15T07:09:22;22.50;28.50
84114;DHT22;74483;48.846;2.358;2024-02-15T07:11:50;22.50;28.50
84114;DHT22;74483;48.846;2.358;2024-02-15T07:14:16;22.50;28.50
84114;DHT22;74483;48.846;2.358;2024-02-15T07:16:49;22.50;28.40
84114;DHT22;74483;48.846;2.358;2024-02-15T07:19:15;22.50;28.40
84114;DHT22;74483;48.846;2.358;2024-02-15T07:21:41;22.50;28.40
84114;DHT22;74483;48.846;2.358;2024-02-15T07:24:07;22.50;28.30
84114;DHT22;74483;48.846;2.358;2024-02-15T07:26:33;22.50;28.30
84114;DHT22;74483;48.846;2.358;2024-02-15T07:29:01;22.60;28.30
84114;DHT22;74483;48.846;2.358;2024-02-15T07:31:29;22.50;28.30
84114;DHT22;74483;48.846;2.358;2024-02-15T07:33:55;22.60;28.20
84114;DHT22;74483;48.846;2.358;2024-02-15T07:36:21;22.60;28.20
84114;DHT22;74483;48.846;2.358;2024-02-15T07:38:48;22.60;28.20
84114;DHT22;74483;48.846;2.358;2024-02-15T07:41:15;22.60;28.10
84114;DHT22;74483;48.846;2.358;2024-02-15T07:43:40;22.60;28.10
84114;DHT22;74483;48.846;2.358;2024-02-15T07:46:06;22.60;28.20
84114;DHT22;74483;48.846;2.358;2024-02-15T07:48:32;22.60;28.10
84114;DHT22;74483;48.846;2.358;2024-02-15T07:50:58;22.70;28.20
84114;DHT22;74483;48.846;2.358;2024-02-15T07:53:24;22.60;28.00
84114;DHT22;74483;48.846;2.358;2024-02-15T07:55:50;22.70;28.00
84114;DHT22;74483;48.846;2.358;2024-02-15T07:58:16;22.70;28.00
84114;DHT22;74483;48.846;2.358;2024-02-15T08:00:44;22.70;27.90
84114;DHT22;74483;48.846;2.358;2024-02-15T08:03:10;22.70;27.90
84114;DHT22;74483;48.846;2.358;2024-02-15T08:05:35;22.80;27.90
84114;DHT22;74483;48.846;2.358;2024-02-15T08:08:02;22.80;27.90
84114;DHT22;74483;48.846;2.358;2024-02-15T08:10:29;22.80;27.80
84114;DHT22;74483;48.846;2.358;2024-02-15T08:12:56;22.80;27.80
84114;DHT22;74483;48.846;2.358;2024-02-15T08:15:23;22.80;27.80
84114;DHT22;74483;48.846;2.358;2024-02-15T08:17:49;22.90;27.80
84114;DHT22;74483;48.846;2.358;2024-02-15T08:20:16;22.90;27.80
84114;DHT22;74483;48.846;2.358;2024-02-15T08:22:47;22.90;27.70
84114;DHT22;74483;48.846;2.358;2024-02-15T08:25:13;22.90;27.60
84114;DHT22;74483;48.846;2.358;2024-02-15T08:27:42;22.90;27.60
84114;DHT22;74483;48.846;2.358;2024-02-15T08:30:13;23.00;27.60
84114;DHT22;74483;48.846;2.358;2024-02-15T08:32:39;23.00;27.50
84114;DHT22;74483;48.846;2.358;2024-02-15T08:35:16;23.00;27.50
84114;DHT22;74483;48.846;2.358;2024-02-15T08:37:42;23.00;27.50
84114;DHT22;74483;48.846;2.358;2024-02-15T08:40:09;23.00;27.40
84114;DHT22;74483;48.846;2.358;2024-02-15T08:42:41;23.00;27.40
84114;DHT22;74483;48.846;2.358;2024-02-15T08:45:07;23.10;27.40
84114;DHT22;74483;48.846;2.358;2024-02-15T08:47:39;23.10;27.40
84114;DHT22;74483;48.846;2.358;2024-02-15T08:50:06;23.10;27.40
84114;DHT22;74483;48.846;2.358;2024-02-15T08:52:32;23.10;27.30
84114;DHT22;74483;48.846;2.358;2024-02-15T08:54:57;23.10;27.30
84114;DHT22;74483;48.846;2.358;2024-02-15T08:57:25;23.10;27.30
84114;DHT22;74483;48.846;2.358;2024-02-15T08:59:52;23.20;27.20
84114;DHT22;74483;48.846;2.358;2024-02-15T09:02:18;23.20;27.10
84114;DHT22;74483;48.846;2.358;2024-02-15T09:04:44;23.20;27.10
84114;DHT22;74483;48.846;2.358;2024-02-15T09:07:10;23.20;27.10
84114;DHT22;74483;48.846;2.358;2024-02-15T09:09:36;23.30;27.10
84114;DHT22;74483;48.846;2.358;2024-02-15T09:12:02;23.30;27.90
84114;DHT22;74483;48.846;2.358;2024-02-15T09:14:34;23.30;28.40
84114;DHT22;74483;48.846;2.358;2024-02-15T09:17:00;23.30;28.70
84114;DHT22;74483;48.846;2.358;2024-02-15T09:19:26;23.30;28.90
84114;DHT22;74483;48.846;2.358;2024-02-15T09:21:52;23.30;28.90
84114;DHT22;74483;48.846;2.358;2024-02-15T09:24:19;23.30;28.90
84114;DHT22;74483;48.846;2.358;2024-02-15T09:26:45;23.30;29.00
84114;DHT22;74483;48.846;2.358;2024-02-15T09:29:10;23.30;29.00
84114;DHT22;74483;48.846;2.358;2024-02-15T09:31:36;23.30;28.90
84114;DHT22;74483;48.846;2.358;2024-02-15T09:34:02;23.40;28.90
84114;DHT22;74483;48.846;2.358;2024-02-15T09:36:34;23.40;28.90
84114;DHT22;74483;48.846;2.358;2024-02-15T09:39:00;23.40;28.80
84114;DHT22;74483;48.846;2.358;2024-02-15T09:41:26;23.50;28.80
84114;DHT22;74483;48.846;2.358;2024-02-15T09:43:51;23.50;28.80
84114;DHT22;74483;48.846;2.358;2024-02-15T09:46:17;23.50;28.70
84114;DHT22;74483;48.846;2.358;2024-02-15T09:48:50;23.60;28.70
84114;DHT22;74483;48.846;2.358;2024-02-15T09:51:18;23.60;28.60
84114;DHT22;74483;48.846;2.358;2024-02-15T09:53:45;23.60;28.50
84114;DHT22;74483;48.846;2.358;2024-02-15T09:56:12;23.70;28.60
84114;DHT22;74483;48.846;2.358;2024-02-15T09:58:39;23.70;28.60
84114;DHT22;74483;48.846;2.358;2024-02-15T10:01:05;23.80;28.20
84114;DHT22;74483;48.846;2.358;2024-02-15T10:03:37;24.00;27.60
84114;DHT22;74483;48.846;2.358;2024-02-15T10:06:06;24.10;27.30
84114;DHT22;74483;48.846;2.358;2024-02-15T10:08:31;24.20;27.10
84114;DHT22;74483;48.846;2.358;2024-02-15T10:11:07;24.30;27.10
84114;DHT22;74483;48.846;2.358;2024-02-15T10:13:34;24.30;27.00
84114;DHT22;74483;48.846;2.358;2024-02-15T10:16:17;24.20;26.90
84114;DHT22;74483;48.846;2.358;2024-02-15T10:18:44;24.30;27.00
84114;DHT22;74483;48.846;2.358;2024-02-15T10:21:10;24.20;26.90
84114;DHT22;74483;48.846;2.358;2024-02-15T10:24:02;24.20;26.90
84114;DHT22;74483;48.846;2.358;2024-02-15T10:26:30;24.20;26.90
84114;DHT22;74483;48.846;2.358;2024-02-15T10:29:10;24.20;26.90
84114;DHT22;74483;48.846;2.358;2024-02-15T10:31:39;24.20;26.80
84114;DHT22;74483;48.846;2.358;2024-02-15T10:34:08;24.30;26.80
84114;DHT22;74483;48.846;2.358;2024-02-15T10:36:34;24.30;26.70
84114;DHT22;74483;48.846;2.358;2024-02-15T10:39:12;24.30;26.60
84114;DHT22;74483;48.846;2.358;2024-02-15T10:41:51;24.30;26.60
84114;DHT22;74483;48.846;2.358;2024-02-15T10:44:19;24.30;26.50
84114;DHT22;74483;48.846;2.358;2024-02-15T10:46:46;24.30;26.50
84114;DHT22;74483;48.846;2.358;2024-02-15T10:49:17;24.40;26.40
84114;DHT22;74483;48.846;2.358;2024-02-15T10:51:44;24.30;26.40
84114;DHT22;74483;48.846;2.358;2024-02-15T10:54:12;24.40;27.00
84114;DHT22;74483;48.846;2.358;2024-02-15T10:56:43;24.40;26.30
84114;DHT22;74483;48.846;2.358;2024-02-15T10:59:18;24.40;26.20
84114;DHT22;74483;48.846;2.358;2024-02-15T11:01:46;24.50;26.20
84114;DHT22;74483;48.846;2.358;2024-02-15T11:04:18;24.50;26.20
84114;DHT22;74483;48.846;2.358;2024-02-15T11:06:47;24.50;26.10
84114;DHT22;74483;48.846;2.358;2024-02-15T11:09:16;24.50;26.10
84114;DHT22;74483;48.846;2.358;2024-02-15T11:11:42;24.60;25.80
84114;DHT22;74483;48.846;2.358;2024-02-15T11:14:29;24.70;25.80
84114;DHT22;74483;48.846;2.358;2024-02-15T11:16:56;24.80;25.60
84114;DHT22;74483;48.846;2.358;2024-02-15T11:22:00;24.80;25.50
84114;DHT22;74483;48.846;2.358;2024-02-15T11:24:30;24.80;25.60
84114;DHT22;74483;48.846;2.358;2024-02-15T11:27:02;24.70;25.60
84114;DHT22;74483;48.846;2.358;2024-02-15T11:29:52;24.70;25.80
84114;DHT22;74483;48.846;2.358;2024-02-15T11:32:39;24.60;25.70
84114;DHT22;74483;48.846;2.358;2024-02-15T11:35:18;24.60;25.70
84114;DHT22;74483;48.846;2.358;2024-02-15T11:40:28;24.60;25.80
84114;DHT22;74483;48.846;2.358;2024-02-15T11:42:57;24.60;25.80
84114;DHT22;74483;48.846;2.358;2024-02-15T11:45:27;24.50;25.80
84114;DHT22;74483;48.846;2.358;2024-02-15T11:47:59;24.50;25.90
84114;DHT22;74483;48.846;2.358;2024-02-15T11:50:27;24.60;25.80
84114;DHT22;74483;48.846;2.358;2024-02-15T11:53:02;24.60;25.70
84114;DHT22;74483;48.846;2.358;2024-02-15T11:55:31;24.60;25.70
84114;DHT22;74483;48.846;2.358;2024-02-15T11:58:02;24.60;25.60
84114;DHT22;74483;48.846;2.358;2024-02-15T12:00:31;24.60;25.60
84114;DHT22;74483;48.846;2.358;2024-02-15T12:03:16;24.60;25.60
84114;DHT22;74483;48.846;2.358;2024-02-15T12:06:01;24.70;25.60
84114;DHT22;74483;48.846;2.358;2024-02-15T12:08:47;24.70;25.50
84114;DHT22;74483;48.846;2.358;2024-02-15T12:11:31;24.70;25.50
84114;DHT22;74483;48.846;2.358;2024-02-15T12:14:16;24.70;25.50
84114;DHT22;74483;48.846;2.358;2024-02-15T12:17:07;24.70;25.50
84114;DHT22;74483;48.846;2.358;2024-02-15T12:19:53;24.70;25.50
84114;DHT22;74483;48.846;2.358;2024-02-15T12:22:46;24.70;25.50
84114;DHT22;74483;48.846;2.358;2024-02-15T12:25:17;24.70;25.50
84114;DHT22;74483;48.846;2.358;2024-02-15T12:27:46;24.60;25.40
84114;DHT22;74483;48.846;2.358;2024-02-15T12:30:18;24.60;25.30
84114;DHT22;74483;48.846;2.358;2024-02-15T12:32:51;24.60;25.30
84114;DHT22;74483;48.846;2.358;2024-02-15T12:35:19;24.70;25.40
84114;DHT22;74483;48.846;2.358;2024-02-15T12:38:03;24.60;25.30
84114;DHT22;74483;48.846;2.358;2024-02-15T12:40:35;24.70;25.40
84114;DHT22;74483;48.846;2.358;2024-02-15T12:43:02;24.60;25.40
84114;DHT22;74483;48.846;2.358;2024-02-15T12:45:31;24.60;25.30
84114;DHT22;74483;48.846;2.358;2024-02-15T12:47:57;24.60;25.30
84114;DHT22;74483;48.846;2.358;2024-02-15T12:50:27;24.70;25.40
84114;DHT22;74483;48.846;2.358;2024-02-15T12:52:54;24.70;25.40
84114;DHT22;74483;48.846;2.358;2024-02-15T12:55:30;24.60;25.30
84114;DHT22;74483;48.846;2.358;2024-02-15T12:58:03;24.60;25.30
84114;DHT22;74483;48.846;2.358;2024-02-15T13:00:31;24.60;25.30
84114;DHT22;74483;48.846;2.358;2024-02-15T13:03:05;24.60;25.30
84114;DHT22;74483;48.846;2.358;2024-02-15T13:05:34;24.60;25.40
84114;DHT22;74483;48.846;2.358;2024-02-15T13:08:01;24.50;25.30
84114;DHT22;74483;48.846;2.358;2024-02-15T13:10:31;24.50;25.40
84114;DHT22;74483;48.846;2.358;2024-02-15T13:12:57;24.50;25.30
84114;DHT22;74483;48.846;2.358;2024-02-15T13:15:24;24.60;25.30
84114;DHT22;74483;48.846;2.358;2024-02-15T13:17:54;24.60;25.30
84114;DHT22;74483;48.846;2.358;2024-02-15T13:20:21;24.60;25.30
84114;DHT22;74483;48.846;2.358;2024-02-15T13:22:57;24.60;25.50
84114;DHT22;74483;48.846;2.358;2024-02-15T13:25:26;24.60;25.80
84114;DHT22;74483;48.846;2.358;2024-02-15T13:27:51;24.60;26.00
84114;DHT22;74483;48.846;2.358;2024-02-15T13:30:17;24.60;26.20
84114;DHT22;74483;48.846;2.358;2024-02-15T13:32:48;24.60;26.30
84114;DHT22;74483;48.846;2.358;2024-02-15T13:35:14;24.50;26.50
84114;DHT22;74483;48.846;2.358;2024-02-15T13:37:46;24.60;26.50
84114;DHT22;74483;48.846;2.358;2024-02-15T13:40:13;24.60;26.70
84114;DHT22;74483;48.846;2.358;2024-02-15T13:42:46;24.60;26.70
84114;DHT22;74483;48.846;2.358;2024-02-15T13:45:21;24.50;26.80
84114;DHT22;74483;48.846;2.358;2024-02-15T13:47:50;24.50;26.90
84114;DHT22;74483;48.846;2.358;2024-02-15T13:50:17;24.50;26.90
84114;DHT22;74483;48.846;2.358;2024-02-15T13:52:43;24.50;26.90
84114;DHT22;74483;48.846;2.358;2024-02-15T13:55:13;24.50;27.00
84114;DHT22;74483;48.846;2.358;2024-02-15T13:57:44;24.50;27.00
84114;DHT22;74483;48.846;2.358;2024-02-15T14:00:10;24.50;27.10
84114;DHT22;74483;48.846;2.358;2024-02-15T14:02:53;24.40;27.10
84114;DHT22;74483;48.846;2.358;2024-02-15T14:05:19;24.40;27.10
84114;DHT22;74483;48.846;2.358;2024-02-15T14:07:48;24.50;27.30
84114;DHT22;74483;48.846;2.358;2024-02-15T14:10:24;24.40;27.20
84114;DHT22;74483;48.846;2.358;2024-02-15T14:12:51;24.40;27.20
84114;DHT22;74483;48.846;2.358;2024-02-15T14:15:37;24.50;27.30
84114;DHT22;74483;48.846;2.358;2024-02-15T14:18:07;24.40;27.20
84114;DHT22;74483;48.846;2.358;2024-02-15T14:20:36;24.50;27.30
84114;DHT22;74483;48.846;2.358;2024-02-15T14:23:03;24.40;27.20
84114;DHT22;74483;48.846;2.358;2024-02-15T14:25:32;24.50;27.40
84114;DHT22;74483;48.846;2.358;2024-02-15T14:27:58;24.40;27.30
84114;DHT22;74483;48.846;2.358;2024-02-15T14:30:24;24.40;27.30
84114;DHT22;74483;48.846;2.358;2024-02-15T14:33:08;24.50;27.40
84114;DHT22;74483;48.846;2.358;2024-02-15T14:35:37;24.40;27.50
84114;DHT22;74483;48.846;2.358;2024-02-15T14:38:06;24.40;27.40
84114;DHT22;74483;48.846;2.358;2024-02-15T14:40:35;24.40;27.50
84114;DHT22;74483;48.846;2.358;2024-02-15T14:43:01;24.40;27.50
84114;DHT22;74483;48.846;2.358;2024-02-15T14:45:27;24.40;27.50
84114;DHT22;74483;48.846;2.358;2024-02-15T14:47:54;24.40;27.60
84114;DHT22;74483;48.846;2.358;2024-02-15T14:50:19;24.30;27.60
84114;DHT22;74483;48.846;2.358;2024-02-15T14:52:46;24.30;27.70
84114;DHT22;74483;48.846;2.358;2024-02-15T14:55:13;24.30;27.70
84114;DHT22;74483;48.846;2.358;2024-02-15T14:57:39;24.30;27.70
84114;DHT22;74483;48.846;2.358;2024-02-15T15:00:05;24.30;27.70
84114;DHT22;74483;48.846;2.358;2024-02-15T15:02:37;24.30;27.70
84114;DHT22;74483;48.846;2.358;2024-02-15T15:05:02;24.30;27.80
84114;DHT22;74483;48.846;2.358;2024-02-15T15:07:47;24.30;27.80
84114;DHT22;74483;48.846;2.358;2024-02-15T15:10:31;24.30;27.90
84114;DHT22;74483;48.846;2.358;2024-02-15T15:13:15;24.20;27.80
84114;DHT22;74483;48.846;2.358;2024-02-15T15:15:41;24.20;27.80
84114;DHT22;74483;48.846;2.358;2024-02-15T15:18:07;24.20;27.80
84114;DHT22;74483;48.846;2.358;2024-02-15T15:20:34;24.20;27.90
84114;DHT22;74483;48.846;2.358;2024-02-15T15:23:00;24.20;27.80
84114;DHT22;74483;48.846;2.358;2024-02-15T15:25:26;24.20;27.80
84114;DHT22;74483;48.846;2.358;2024-02-15T15:27:54;24.20;27.80
84114;DHT22;74483;48.846;2.358;2024-02-15T15:30:21;24.20;27.80
84114;DHT22;74483;48.846;2.358;2024-02-15T15:32:48;24.20;27.90
84114;DHT22;74483;48.846;2.358;2024-02-15T15:35:15;24.10;27.90
84114;DHT22;74483;48.846;2.358;2024-02-15T15:37:43;24.10;27.90
84114;DHT22;74483;48.846;2.358;2024-02-15T15:40:09;24.10;28.50
84114;DHT22;74483;48.846;2.358;2024-02-15T15:42:37;24.10;27.90
84114;DHT22;74483;48.846;2.358;2024-02-15T15:45:06;24.10;27.90